Time;durP1;ratioP1;P1;durP2;ratioP2;P2;SDS_P1;SDS_P2;PMS_P1;PMS_P2;Temp;Humidity;BMP_temperature;BMP_pressure;BME280_temperature;BME280_humidity;BME280_pressure;Samples;Min_cycle;Max_cycle;Signal;HPM_P1;HPM_P2
2022/10/04 00:01:45;;;;;;;25.33;14.35;;;;;;;11.97;100.00;93028.53;5030279;28;20018;-74
2022/10/04 00:04:24;;;;;;;24.23;13.05;;;;;;;11.94;100.00;93029.09;4998063;28;20609;-75
2022/10/04 00:07:06;;;;;;;24.17;11.50;;;;;;;11.92;100.00;93034.63;5014047;28;20079;-74
2022/10/04 00:09:44;;;;;;;20.85;10.32;;;;;;;11.92;100.00;93032.00;5014519;28;20029;-74
2022/10/04 00:12:39;;;;;;;20.75;10.18;;;;;;;11.88;100.00;93034.41;5030027;28;20541;-74
2022/10/04 00:15:17;;;;;;;23.08;8.63;;;;;;;11.86;100.00;93039.09;5031397;28;20463;-74
2022/10/04 00:17:43;;;;;;;16.33;7.78;;;;;;;11.84;100.00;93040.44;5031509;28;20530;-73
2022/10/04 00:20:49;;;;;;;18.63;8.50;;;;;;;11.82;100.00;93046.00;5032695;28;20041;-74
2022/10/04 00:23:23;;;;;;;18.27;8.85;;;;;;;11.79;100.00;93041.28;5030513;28;20041;-74
2022/10/04 00:26:32;;;;;;;20.02;9.52;;;;;;;11.77;100.00;93038.16;5031542;28;20631;-74
2022/10/04 00:29:37;;;;;;;17.83;9.05;;;;;;;11.74;100.00;93033.50;4974256;28;20156;-74
2022/10/04 00:32:08;;;;;;;16.73;8.40;;;;;;;11.74;100.00;93036.09;5030138;28;20045;-74
2022/10/04 00:34:34;;;;;;;17.83;9.00;;;;;;;11.72;100.00;93040.06;5013080;28;20044;-73
2022/10/04 00:37:00;;;;;;;17.80;8.90;;;;;;;11.70;100.00;93032.47;4996557;28;20029;-73
2022/10/04 00:39:32;;;;;;;17.08;9.18;;;;;;;11.70;100.00;93035.09;5013306;28;20080;-74
2022/10/04 00:42:29;;;;;;;17.08;8.48;;;;;;;11.69;100.00;93033.56;5030192;28;20033;-73
2022/10/04 00:45:11;;;;;;;15.80;8.25;;;;;;;11.65;100.00;93020.19;5034711;28;20049;-74
2022/10/04 00:47:45;;;;;;;19.92;9.43;;;;;;;11.64;100.00;93028.34;5033183;28;20048;-74
2022/10/04 00:50:30;;;;;;;21.42;11.10;;;;;;;11.63;100.00;93027.56;5029272;28;20037;-73
2022/10/04 00:52:57;;;;;;;21.40;11.48;;;;;;;11.64;100.00;93028.34;5018075;28;20065;-74
2022/10/04 00:55:35;;;;;;;26.50;12.90;;;;;;;11.62;100.00;93031.25;5027798;28;20439;-73
2022/10/04 00:58:04;;;;;;;25.73;12.77;;;;;;;11.62;100.00;93031.25;5013636;28;20040;-73
2022/10/04 01:00:32;;;;;;;28.70;14.63;;;;;;;11.61;100.00;93028.91;5014020;28;20022;-73
2022/10/04 01:03:02;;;;;;;27.42;13.63;;;;;;;11.61;100.00;93028.91;5038584;28;20036;-73
2022/10/04 01:05:43;;;;;;;28.70;14.65;;;;;;;11.60;100.00;93025.50;5012482;28;20029;-74
2022/10/04 01:08:13;;;;;;;31.30;14.68;;;;;;;11.59;100.00;93025.78;5029881;28;20037;-74
2022/10/04 01:10:51;;;;;;;25.63;13.48;;;;;;;11.59;100.00;93023.16;5029511;28;20033;-74
2022/10/04 01:13:44;;;;;;;24.95;13.85;;;;;;;11.58;100.00;93021.63;5030693;28;20043;-74
2022/10/04 01:16:17;;;;;;;25.27;14.05;;;;;;;11.57;100.00;93022.66;5029009;28;20033;-74
2022/10/04 01:18:43;;;;;;;23.40;13.32;;;;;;;11.55;100.00;93019.53;5030633;28;20107;-74
2022/10/04 01:21:17;;;;;;;27.65;13.82;;;;;;;11.55;100.00;93016.91;5031216;28;20029;-74
2022/10/04 01:24:09;;;;;;;26.25;12.98;;;;;;;11.54;100.00;93017.97;5026984;28;20035;-74
2022/10/04 01:26:47;;;;;;;27.03;14.30;;;;;;;11.52;100.00;93014.84;5025253;28;20073;-74
2022/10/04 01:29:15;;;;;;;25.42;14.48;;;;;;;11.51;100.00;93018.53;5027681;28;20291;-74
2022/10/04 01:31:53;;;;;;;28.38;14.93;;;;;;;11.49;100.00;93010.16;5050470;28;20486;-74
2022/10/04 01:34:24;;;;;;;27.30;14.88;;;;;;;11.45;100.00;93005.47;5046631;28;20033;-74
2022/10/04 01:36:53;;;;;;;30.15;14.70;;;;;;;11.43;100.00;93004.97;5028515;28;20392;-74
2022/10/04 01:39:21;;;;;;;28.13;14.43;;;;;;;11.41;100.00;93007.06;5028903;28;20025;-74
2022/10/04 01:42:05;;;;;;;31.40;15.05;;;;;;;11.41;100.00;93003.69;5029060;28;20527;-73
2022/10/04 01:44:36;;;;;;;28.60;14.60;;;;;;;11.40;100.00;93007.38;5028319;28;20399;-73
2022/10/04 01:47:08;;;;;;;27.33;14.68;;;;;;;11.39;100.00;93005.78;5028463;28;20165;-74
2022/10/04 01:49:37;;;;;;;26.40;14.25;;;;;;;11.38;100.00;93002.41;5012411;28;20121;-74
2022/10/04 01:52:16;;;;;;;23.42;13.63;;;;;;;11.34;100.00;92998.75;5029707;28;20061;-74
2022/10/04 01:54:59;;;;;;;22.67;13.32;;;;;;;11.31;100.00;92994.09;5012220;28;20175;-74
2022/10/04 01:57:33;;;;;;;25.35;13.00;;;;;;;11.27;100.00;92981.81;5030203;28;20040;-74
2022/10/04 02:00:03;;;;;;;25.23;14.43;;;;;;;11.27;100.00;92989.69;5026830;28;20491;-74
2022/10/04 02:02:48;;;;;;;25.20;14.40;;;;;;;11.26;100.00;92991.53;5029833;28;20048;-74
2022/10/04 02:05:19;;;;;;;25.50;13.77;;;;;;;11.26;100.00;92991.53;5012202;28;20037;-74
2022/10/04 02:07:46;;;;;;;19.25;11.35;;;;;;;11.24;100.00;92988.41;5038926;28;20037;-74
2022/10/04 02:10:18;;;;;;;20.35;9.90;;;;;;;11.23;100.00;92981.59;5030373;28;20044;-74
2022/10/04 02:12:46;;;;;;;25.73;11.38;;;;;;;11.14;100.00;92978.00;5030146;28;20559;-74
2022/10/04 02:15:13;;;;;;;26.35;11.50;;;;;;;11.19;100.00;92984.00;5029654;28;20025;-74
2022/10/04 02:17:41;;;;;;;21.05;10.15;;;;;;;11.17;100.00;92993.97;5012066;28;20043;-74
2022/10/04 02:20:20;;;;;;;18.30;9.18;;;;;;;11.14;100.00;92993.72;5026782;28;20029;-74
2022/10/04 02:22:53;;;;;;;18.17;10.18;;;;;;;11.14;100.00;92993.72;5023255;28;20322;-74
2022/10/04 02:25:19;;;;;;;20.50;9.95;;;;;;;11.10;100.00;92992.72;5030273;28;20029;-74
2022/10/04 02:27:45;;;;;;;21.13;10.40;;;;;;;11.07;100.00;92983.56;5010985;28;20026;-74
2022/10/04 02:30:12;;;;;;;15.45;8.10;;;;;;;11.06;100.00;92986.50;5028713;28;20034;-74
2022/10/04 02:32:58;;;;;;;17.73;8.43;;;;;;;11.02;100.00;92981.78;5012556;28;20499;-74
2022/10/04 02:35:47;;;;;;;23.92;10.18;;;;;;;11.02;100.00;92981.78;5012474;28;20470;-74
2022/10/04 02:38:16;;;;;;;24.35;12.05;;;;;;;11.02;100.00;92981.78;5043414;28;20033;-74
2022/10/04 02:40:56;;;;;;;14.57;7.38;;;;;;;10.97;100.00;92979.22;5029588;28;20097;-74
2022/10/04 02:43:32;;;;;;;10.70;5.70;;;;;;;10.93;100.00;92982.66;5011698;28;20057;-74
2022/10/04 02:46:06;;;;;;;18.05;8.40;;;;;;;10.91;100.00;92982.16;5029443;28;20049;-74
2022/10/04 02:49:01;;;;;;;23.08;10.07;;;;;;;10.92;100.00;92981.88;5011346;28;20458;-74
2022/10/04 02:51:43;;;;;;;26.63;11.00;;;;;;;10.90;100.00;92985.81;5005974;28;20041;-74
2022/10/04 02:54:11;;;;;;;20.92;11.48;;;;;;;10.89;100.00;92987.66;5024696;28;20050;-74
2022/10/04 02:56:37;;;;;;;22.08;11.07;;;;;;;10.91;100.00;92985.53;5029525;28;20045;-74
2022/10/04 02:59:04;;;;;;;20.05;10.05;;;;;;;10.89;100.00;92985.03;5031827;28;20093;-74
2022/10/04 03:01:46;;;;;;;21.05;10.75;;;;;;;10.86;100.00;92985.59;5031941;28;20036;-73
2022/10/04 03:04:13;;;;;;;23.38;11.25;;;;;;;10.86;100.00;92988.22;5048623;28;20326;-74
2022/10/04 03:06:42;;;;;;;24.63;10.60;;;;;;;10.86;100.00;92988.22;5015547;28;20032;-73
2022/10/04 03:09:08;;;;;;;20.08;10.52;;;;;;;10.81;100.00;92981.19;5016063;28;20045;-73
2022/10/04 03:11:37;;;;;;;34.85;17.42;;;;;;;10.79;100.00;92985.91;5031057;28;20557;-74
2022/10/04 03:14:08;;;;;;;25.02;13.10;;;;;;;10.77;100.00;92985.41;5033037;28;20039;-73
2022/10/04 03:16:38;;;;;;;20.80;10.10;;;;;;;10.76;100.00;92977.81;5023042;28;20479;-74
2022/10/04 03:19:06;;;;;;;19.08;9.10;;;;;;;10.74;100.00;92980.72;5051935;28;20044;-73
2022/10/04 03:21:33;;;;;;;14.25;7.95;;;;;;;10.72;100.00;92980.22;5028455;28;20037;-74
2022/10/04 03:24:01;;;;;;;12.50;7.40;;;;;;;10.73;100.00;92981.00;5052725;28;20510;-74
2022/10/04 03:26:37;;;;;;;15.63;7.63;;;;;;;10.70;100.00;92987.56;5052915;28;20091;-74
2022/10/04 03:29:09;;;;;;;14.15;5.72;;;;;;;10.67;100.00;92984.69;5034807;28;20407;-74
2022/10/04 03:31:40;;;;;;;12.68;5.82;;;;;;;10.63;100.00;92981.88;5035281;28;20521;-74
2022/10/04 03:34:14;;;;;;;16.30;5.70;;;;;;;10.60;100.00;92990.25;5017388;28;20041;-74
2022/10/04 03:36:40;;;;;;;15.50;5.28;;;;;;;10.55;100.00;92993.69;5014930;28;20037;-74
2022/10/04 03:39:08;;;;;;;10.65;4.93;;;;;;;10.52;100.00;92989.00;5032408;28;20033;-73
2022/10/04 03:41:38;;;;;;;9.27;4.22;;;;;;;10.51;100.00;92991.88;5014962;28;20029;-74
2022/10/04 03:44:12;;;;;;;7.30;3.58;;;;;;;10.50;99.71;92998.19;5031232;28;20120;-74
2022/10/04 03:46:38;;;;;;;6.38;3.20;;;;;;;10.45;98.27;92991.16;5032512;28;20044;-74
2022/10/04 03:49:06;;;;;;;8.00;3.55;;;;;;;10.40;97.41;92997.19;5031933;28;20388;-74
2022/10/04 03:51:33;;;;;;;7.00;2.92;;;;;;;10.40;97.59;93005.06;5010154;28;20044;-73
2022/10/04 03:54:01;;;;;;;7.10;3.05;;;;;;;10.38;97.44;93003.75;5014001;28;20081;-73
2022/10/04 03:56:35;;;;;;;9.68;2.88;;;;;;;10.36;96.67;93005.88;5030669;28;20040;-73
2022/10/04 03:59:05;;;;;;;8.45;3.10;;;;;;;10.37;96.28;93007.41;5042070;28;20447;-73
2022/10/04 04:01:49;;;;;;;5.72;2.80;;;;;;;10.33;97.01;93007.16;5027746;28;20120;-74
2022/10/04 04:04:28;;;;;;;7.25;2.90;;;;;;;10.34;96.62;93010.59;5051422;28;20037;-73
2022/10/04 04:07:09;;;;;;;8.50;2.75;;;;;;;10.32;96.85;93012.69;5012814;28;20503;-74
2022/10/04 04:09:51;;;;;;;12.18;3.28;;;;;;;10.30;96.73;93015.56;5013803;28;20144;-74
2022/10/04 04:12:42;;;;;;;5.53;2.70;;;;;;;10.30;96.46;93017.41;5038722;28;20029;-75
2022/10/04 04:15:12;;;;;;;8.20;3.15;;;;;;;10.31;96.81;93016.34;5031345;28;20039;-73
2022/10/04 04:17:53;;;;;;;9.73;2.92;;;;;;;10.32;97.54;93020.53;5034168;28;20037;-73
2022/10/04 04:20:31;;;;;;;7.68;3.20;;;;;;;10.32;98.24;93012.69;5018790;28;20025;-74
2022/10/04 04:23:02;;;;;;;6.75;3.00;;;;;;;10.32;99.03;93015.31;5051697;28;20398;-74
2022/10/04 04:25:31;;;;;;;6.50;3.10;;;;;;;10.32;98.97;93015.31;5033549;28;20523;-74
2022/10/04 04:28:24;;;;;;;9.60;3.03;;;;;;;10.31;98.85;93008.50;5013319;28;20040;-73
2022/10/04 04:30:57;;;;;;;5.40;2.80;;;;;;;10.29;97.92;93013.22;5031662;28;20132;-75
2022/10/04 04:33:33;;;;;;;4.82;2.60;;;;;;;10.27;97.95;93018.72;5049212;28;20037;-73
2022/10/04 04:36:05;;;;;;;5.32;2.88;;;;;;;10.27;98.17;93018.72;5033677;28;20080;-73
2022/10/04 04:38:31;;;;;;;6.90;2.90;;;;;;;10.25;98.95;93015.56;5031464;28;20073;-73
2022/10/04 04:41:08;;;;;;;7.50;3.00;;;;;;;10.24;99.09;93016.63;5013874;28;20371;-73
2022/10/04 04:43:34;;;;;;;11.20;2.97;;;;;;;10.23;99.18;93014.28;5030292;28;20048;-75
2022/10/04 04:46:01;;;;;;;7.78;3.50;;;;;;;10.23;99.32;93024.75;5036352;28;20034;-73
2022/10/04 04:48:28;;;;;;;9.38;3.22;;;;;;;10.24;99.55;93023.69;5036354;28;20427;-73
2022/10/04 04:50:56;;;;;;;6.07;2.70;;;;;;;10.28;99.68;93027.34;5027894;28;20167;-73
2022/10/04 04:53:26;;;;;;;8.60;3.00;;;;;;;10.31;99.22;93029.44;5012276;28;20040;-77
2022/10/04 04:56:02;;;;;;;6.68;3.25;;;;;;;10.33;99.09;93032.56;5026061;28;20045;-74
2022/10/04 04:58:41;;;;;;;5.97;3.13;;;;;;;10.34;99.10;93036.75;5026616;28;20518;-75
2022/10/04 05:01:34;;;;;;;11.73;2.92;;;;;;;10.33;99.45;93037.78;5034359;28;20112;-75
2022/10/04 05:04:11;;;;;;;9.18;4.10;;;;;;;10.36;99.45;93043.28;5001400;28;20037;-75
2022/10/04 05:06:40;;;;;;;10.23;3.08;;;;;;;10.36;99.54;93042.50;5038628;28;20091;-75
2022/10/04 05:09:22;;;;;;;6.00;3.22;;;;;;;10.37;99.59;93038.81;5028785;28;20037;-76
2022/10/04 05:11:50;;;;;;;6.78;3.20;;;;;;;10.37;99.63;93038.81;5050608;28;20059;-75
2022/10/04 05:14:16;;;;;;;8.43;2.70;;;;;;;10.37;99.64;93038.81;5001590;28;20065;-76
2022/10/04 05:16:51;;;;;;;8.75;2.85;;;;;;;10.37;99.63;93042.22;5028275;28;20551;-75
2022/10/04 05:19:22;;;;;;;5.90;2.70;;;;;;;10.37;99.25;93041.44;5005367;28;20033;-75
2022/10/04 05:21:51;;;;;;;6.97;2.90;;;;;;;10.36;99.30;93045.13;5030438;28;20091;-76
2022/10/04 05:24:17;;;;;;;5.43;2.40;;;;;;;10.34;99.56;93044.63;4993169;28;20040;-75
2022/10/04 05:26:42;;;;;;;6.45;2.92;;;;;;;10.32;99.67;93044.09;4994082;28;20120;-75
2022/10/04 05:29:15;;;;;;;7.65;2.95;;;;;;;10.30;99.70;93046.19;5006764;28;20041;-76
2022/10/04 05:31:56;;;;;;;6.72;2.85;;;;;;;10.31;99.67;93045.94;5029337;28;20030;-75
2022/10/04 05:34:27;;;;;;;8.30;3.45;;;;;;;10.30;99.28;93049.59;5010243;28;20107;-76
2022/10/04 05:37:21;;;;;;;6.18;2.58;;;;;;;10.31;99.27;93053.78;5008243;28;20035;-76
2022/10/04 05:40:05;;;;;;;6.78;2.80;;;;;;;10.30;99.00;93052.22;5030744;28;20488;-75
2022/10/04 05:42:44;;;;;;;6.63;2.60;;;;;;;10.34;99.11;93055.06;5014194;28;20033;-75
2022/10/04 05:45:18;;;;;;;10.73;3.00;;;;;;;10.37;98.97;93050.06;5030269;28;20045;-75
2022/10/04 05:47:46;;;;;;;9.63;2.90;;;;;;;10.40;99.22;93059.22;5012523;28;20040;-75
2022/10/04 05:50:24;;;;;;;9.18;2.85;;;;;;;10.47;98.50;93064.94;5037534;28;20025;-75
2022/10/04 05:52:51;;;;;;;6.10;2.60;;;;;;;10.47;98.06;93067.56;5032410;28;20060;-75
2022/10/04 05:55:22;;;;;;;8.77;2.60;;;;;;;10.49;97.77;93068.09;5024693;28;20123;-75
2022/10/04 05:57:56;;;;;;;7.75;2.63;;;;;;;10.53;97.53;93074.31;4992422;28;20041;-75
2022/10/04 06:00:38;;;;;;;8.57;2.85;;;;;;;10.56;97.53;93076.41;5008962;28;20038;-75
2022/10/04 06:03:32;;;;;;;6.38;2.63;;;;;;;10.58;97.22;93076.94;5016492;28;20514;-75
2022/10/04 06:06:15;;;;;;;6.68;2.53;;;;;;;10.62;96.80;93082.38;5013374;28;20159;-75
2022/10/04 06:08:49;;;;;;;5.45;2.78;;;;;;;10.65;97.46;93078.44;5007780;28;20030;-75
2022/10/04 06:11:28;;;;;;;7.65;2.60;;;;;;;10.69;97.57;93084.69;5027682;28;20045;-75
2022/10/04 06:14:06;;;;;;;5.18;2.45;;;;;;;10.74;96.90;93095.94;5012270;28;20048;-75
2022/10/04 06:17:08;;;;;;;7.82;2.38;;;;;;;10.81;95.66;93090.41;5038789;28;20437;-75
2022/10/04 06:19:51;;;;;;;4.68;2.17;;;;;;;10.83;95.94;93089.06;5010196;28;20069;-75
2022/10/04 06:22:18;;;;;;;5.82;2.30;;;;;;;10.87;95.76;93094.53;4995942;28;20080;-74
2022/10/04 06:24:53;;;;;;;7.28;2.00;;;;;;;10.93;95.67;93093.44;5010403;28;20022;-75
2022/10/04 06:27:32;;;;;;;6.32;2.03;;;;;;;10.98;94.50;93106.50;5021748;28;20064;-75
2022/10/04 06:30:13;;;;;;;5.55;2.08;;;;;;;11.07;94.17;93103.31;5014276;28;20048;-75
2022/10/04 06:32:52;;;;;;;5.25;2.10;;;;;;;11.17;93.75;93109.25;5011284;28;20376;-75
2022/10/04 06:35:52;;;;;;;6.38;2.00;;;;;;;11.33;92.67;93107.31;5013338;28;20033;-74
2022/10/04 06:38:43;;;;;;;4.57;2.03;;;;;;;11.92;90.72;93096.81;5008025;28;20052;-75
2022/10/04 06:41:14;;;;;;;5.20;1.83;;;;;;;12.15;88.56;93106.50;5012876;28;20347;-75
2022/10/04 06:43:56;;;;;;;3.85;2.00;;;;;;;12.28;86.94;93111.09;5033464;28;20116;-74
2022/10/04 06:47:03;;;;;;;4.70;2.10;;;;;;;12.49;86.24;93105.59;5033658;28;20037;-74
2022/10/04 06:49:40;;;;;;;5.40;1.80;;;;;;;12.78;84.74;93109.94;5031770;28;20053;-76
2022/10/04 06:52:22;;;;;;;7.80;2.03;;;;;;;13.23;83.56;93119.00;5012079;28;20033;-77
2022/10/04 06:55:03;;;;;;;7.35;2.47;;;;;;;14.06;82.89;93113.19;5024453;28;20053;-78
2022/10/04 06:57:50;;;;;;;13.95;2.60;;;;;;;14.31;80.41;93112.69;5020265;28;20112;-78
2022/10/04 07:00:21;;;;;;;6.57;2.78;;;;;;;14.34;79.10;93111.31;5038426;28;20411;-77
2022/10/04 07:03:03;;;;;;;6.60;2.45;;;;;;;14.40;79.55;93118.03;5038200;28;20041;-78
2022/10/04 07:06:02;;;;;;;7.95;2.30;;;;;;;14.41;80.61;93111.72;5020771;28;20045;-78
2022/10/04 07:08:39;;;;;;;7.85;2.58;;;;;;;14.96;80.10;93116.13;5032704;28;20079;-77
2022/10/04 07:11:19;;;;;;;10.18;2.80;;;;;;;15.72;76.46;93115.47;5037330;28;20052;-78
2022/10/04 07:14:03;;;;;;;7.95;2.70;;;;;;;16.35;74.12;93119.63;5039751;28;20026;-79
2022/10/04 07:16:47;;;;;;;9.45;3.25;;;;;;;16.84;71.85;93116.94;5017030;28;20041;-79
2022/10/04 07:19:18;;;;;;;6.65;3.22;;;;;;;17.18;70.14;93129.44;5041579;28;20052;-79
2022/10/04 07:22:05;;;;;;;7.65;3.35;;;;;;;17.42;70.88;93134.22;5047987;28;20033;-79
2022/10/04 07:24:55;;;;;;;7.05;3.70;;;;;;;17.51;68.58;93136.09;5030235;28;20067;-78
2022/10/04 07:27:23;;;;;;;7.93;4.55;;;;;;;17.36;66.75;93140.00;5031027;28;20094;-78
2022/10/04 07:29:56;;;;;;;15.77;5.25;;;;;;;17.26;66.24;93131.28;5032322;28;20044;-78
2022/10/04 07:32:26;;;;;;;7.78;3.90;;;;;;;16.97;67.11;93133.75;5016986;28;20033;-78
2022/10/04 07:34:56;;;;;;;11.70;5.13;;;;;;;16.75;67.28;93134.63;5017595;28;20442;-78
2022/10/04 07:37:28;;;;;;;11.45;4.85;;;;;;;16.76;69.26;93139.63;5034433;28;20038;-78
2022/10/04 07:40:16;;;;;;;7.20;3.67;;;;;;;16.85;70.10;93140.44;5032281;28;20041;-78
2022/10/04 07:42:44;;;;;;;27.30;15.05;;;;;;;16.68;71.20;93152.81;5030350;28;20713;-78
2022/10/04 07:45:26;;;;;;;22.50;13.70;;;;;;;16.63;73.22;93149.22;5020021;28;20033;-78
2022/10/04 07:48:24;;;;;;;22.23;11.13;;;;;;;16.77;72.00;93151.72;5017830;28;20120;-78
2022/10/04 07:51:28;;;;;;;17.77;9.70;;;;;;;17.03;70.85;93153.69;5015642;28;20041;-78
2022/10/04 07:54:12;;;;;;;15.15;7.72;;;;;;;17.16;68.73;93155.41;5034748;28;20488;-78
2022/10/04 07:56:59;;;;;;;13.70;7.35;;;;;;;17.29;68.45;93156.34;5014018;28;20076;-78
2022/10/04 07:59:47;;;;;;;15.23;7.82;;;;;;;17.55;68.50;93156.34;5016084;28;20037;-75
2022/10/04 08:02:38;;;;;;;14.98;8.50;;;;;;;17.90;67.77;93158.97;5031249;28;20399;-77
2022/10/04 08:05:20;;;;;;;24.70;11.38;;;;;;;18.28;65.68;93159.03;5013994;28;20526;-78
2022/10/04 08:08:02;;;;;;;22.15;13.40;;;;;;;18.32;64.99;93159.16;5035368;28;20060;-77
2022/10/04 08:10:45;;;;;;;24.90;13.67;;;;;;;17.99;67.85;93161.59;5014914;28;20404;-77
2022/10/04 08:13:50;;;;;;;12.10;7.65;;;;;;;18.07;67.09;93158.16;5037707;28;20052;-77
2022/10/04 08:16:48;;;;;;;20.88;12.13;;;;;;;17.92;69.61;93163.94;4976645;28;20447;-77
2022/10/04 08:19:20;;;;;;;14.30;7.10;;;;;;;18.02;68.62;93161.75;5038648;28;20100;-77
2022/10/04 08:22:00;;;;;;;11.00;5.10;;;;;;;18.02;68.69;93166.28;5033524;28;20029;-77
2022/10/04 08:24:57;;;;;;;10.45;5.35;;;;;;;17.89;68.38;93168.78;5040366;28;20120;-77
2022/10/04 08:27:39;;;;;;;11.32;5.15;;;;;;;17.96;67.94;93168.31;5016525;28;20087;-78
2022/10/04 08:30:15;;;;;;;11.90;5.95;;;;;;;18.02;67.61;93172.34;5042913;28;20163;-77
2022/10/04 08:33:17;;;;;;;10.52;6.25;;;;;;;17.93;64.28;93179.53;5025917;28;20556;-77
2022/10/04 08:35:55;;;;;;;15.15;8.38;;;;;;;17.85;64.55;93169.72;5013258;28;20041;-77
2022/10/04 08:38:30;;;;;;;17.23;8.27;;;;;;;17.74;63.75;93171.09;5010883;28;20025;-77
2022/10/04 08:41:23;;;;;;;20.33;10.70;;;;;;;17.93;62.57;93163.66;5013798;28;20069;-77
2022/10/04 08:44:22;;;;;;;17.67;11.23;;;;;;;18.08;61.71;93165.78;5040214;28;20542;-77
2022/10/04 08:46:54;;;;;;;23.35;11.20;;;;;;;18.30;61.41;93164.00;5028609;28;20041;-77
2022/10/04 08:49:44;;;;;;;17.67;9.35;;;;;;;18.07;63.91;93166.88;5030942;28;20541;-77
2022/10/04 08:52:47;;;;;;;19.05;10.80;;;;;;;18.03;61.00;93171.25;5029243;28;20038;-77
2022/10/04 08:55:27;;;;;;;17.15;9.48;;;;;;;18.14;60.45;93163.72;5015668;28;20045;-77
2022/10/04 08:58:30;;;;;;;14.88;8.32;;;;;;;17.57;62.62;93169.28;5029213;28;20388;-77
2022/10/04 09:01:38;;;;;;;21.33;8.40;;;;;;;17.81;63.29;93169.59;5032597;28;20033;-77
2022/10/04 09:04:25;;;;;;;17.40;7.53;;;;;;;17.69;63.30;93170.19;5012425;28;20048;-77
2022/10/04 09:07:17;;;;;;;18.10;9.32;;;;;;;17.79;62.47;93170.97;4994777;28;20302;-77
2022/10/04 09:10:01;;;;;;;21.88;11.38;;;;;;;17.98;60.45;93171.41;5022669;28;20056;-78
2022/10/04 09:12:39;;;;;;;16.85;7.38;;;;;;;17.95;61.88;93172.06;5020555;28;20041;-79
2022/10/04 09:15:30;;;;;;;13.80;7.53;;;;;;;17.99;63.59;93174.84;5027362;28;20037;-81
2022/10/04 09:18:36;;;;;;;18.55;9.95;;;;;;;18.09;66.10;93175.28;5052660;28;20102;-79
2022/10/04 09:21:08;;;;;;;13.80;7.00;;;;;;;18.35;64.32;93169.16;5029669;28;20068;-79
2022/10/04 09:23:48;;;;;;;22.60;9.90;;;;;;;17.99;65.01;93172.97;5033175;28;20033;-78
2022/10/04 09:26:19;;;;;;;11.90;5.47;;;;;;;17.94;63.11;93165.19;5033430;28;20048;-78
2022/10/04 09:29:10;;;;;;;12.35;6.03;;;;;;;17.68;65.92;93171.28;5014882;28;20177;-79
2022/10/04 09:32:03;;;;;;;15.10;7.13;;;;;;;17.77;67.41;93165.97;5032794;28;20036;-78
2022/10/04 09:35:05;;;;;;;11.60;6.15;;;;;;;17.50;65.41;93166.31;4998507;28;20128;-79
2022/10/04 09:37:55;;;;;;;14.00;6.05;;;;;;;17.73;66.40;93170.34;5036966;28;20533;-78
2022/10/04 09:40:34;;;;;;;11.45;5.63;;;;;;;17.87;66.33;93170.19;5049206;28;20070;-78
2022/10/04 09:43:28;;;;;;;11.55;5.05;;;;;;;17.82;66.84;93167.72;5017575;28;20041;-78
2022/10/04 09:46:18;;;;;;;12.90;6.93;;;;;;;17.90;68.58;93169.56;5030828;28;20104;-78
2022/10/04 09:49:06;;;;;;;9.95;4.95;;;;;;;17.86;66.97;93179.25;5013618;28;20392;-78
2022/10/04 09:52:11;;;;;;;12.35;5.55;;;;;;;18.15;66.91;93173.25;5015214;28;20220;-78
2022/10/04 09:55:16;;;;;;;14.93;9.65;;;;;;;18.08;68.11;93178.25;5031087;28;20081;-77
2022/10/04 09:57:52;;;;;;;15.00;7.75;;;;;;;18.02;68.50;93172.34;5029964;28;20034;-77
2022/10/04 10:00:23;;;;;;;9.30;5.13;;;;;;;17.87;68.18;93170.19;5031777;28;20041;-77
2022/10/04 10:03:16;;;;;;;12.77;4.65;;;;;;;17.71;67.59;93179.69;5026586;28;20034;-77
2022/10/04 10:05:55;;;;;;;12.85;3.33;;;;;;;17.48;67.88;93180.63;5041822;28;20037;-78
2022/10/04 10:08:28;;;;;;;7.18;3.42;;;;;;;17.53;66.53;93177.03;5020294;28;20021;-79
2022/10/04 10:13:59;;;;;;;7.50;3.08;;;;;;;17.00;64.96;93188.66;5025406;28;20041;-78
2022/10/04 10:16:40;;;;;;;10.93;6.18;;;;;;;17.27;69.24;93190.28;5036843;28;20041;-78
2022/10/04 10:19:34;;;;;;;12.85;5.38;;;;;;;17.36;68.43;93184.97;5037530;28;20033;-78
2022/10/04 10:22:29;;;;;;;11.27;6.00;;;;;;;17.33;69.62;93185.59;5029479;28;20495;-78
2022/10/04 10:25:14;;;;;;;17.27;9.60;;;;;;;17.26;72.43;93189.50;5039107;28;20033;-78
2022/10/04 10:27:53;;;;;;;13.20;8.02;;;;;;;17.23;70.88;93197.28;5008927;28;20037;-78
2022/10/04 10:30:27;;;;;;;9.75;4.60;;;;;;;17.06;68.96;93198.03;5031228;28;20116;-78
2022/10/04 10:33:20;;;;;;;14.38;6.75;;;;;;;16.89;71.71;93200.63;5033776;28;20080;-78
2022/10/04 10:35:45;;;;;;;8.27;5.25;;;;;;;17.25;70.77;93203.03;5034411;28;20033;-77
2022/10/04 10:38:23;;;;;;;13.80;8.45;;;;;;;17.01;72.27;93198.94;5001647;28;20045;-78
2022/10/04 10:41:10;;;;;;;13.75;8.48;;;;;;;17.16;73.88;93199.63;5018275;28;20036;-78
2022/10/04 10:44:03;;;;;;;11.60;4.57;;;;;;;17.18;70.48;93202.69;5028379;28;20518;-78
2022/10/04 10:46:44;;;;;;;13.20;7.68;;;;;;;16.98;72.90;93204.09;5017142;28;20518;-78
2022/10/04 10:49:22;;;;;;;13.48;7.03;;;;;;;17.03;71.85;93212.66;5033309;28;20044;-78
2022/10/04 10:52:36;;;;;;;12.00;6.07;;;;;;;17.06;73.12;93211.25;5015202;28;20069;-79
2022/10/04 10:55:11;;;;;;;15.40;8.70;;;;;;;17.12;75.03;93209.25;5038467;28;20101;-79
2022/10/04 10:57:48;;;;;;;20.77;12.57;;;;;;;17.17;76.77;93201.94;5041778;28;20026;-79
2022/10/04 11:00:18;;;;;;;17.83;9.77;;;;;;;17.45;75.80;93201.63;5035760;28;20583;-77
2022/10/04 11:03:33;;;;;;;25.15;10.57;;;;;;;17.51;73.53;93199.63;5033757;28;20041;-78
2022/10/04 11:06:57;;;;;;;21.65;12.57;;;;;;;17.43;74.81;93199.31;4989305;28;20041;-78
2022/10/04 11:09:31;;;;;;;22.55;11.63;;;;;;;17.40;73.98;93196.50;4956104;28;20077;-78
2022/10/04 11:12:15;;;;;;;20.15;11.40;;;;;;;17.47;74.72;93202.09;4959169;28;20031;-78
2022/10/04 11:15:06;;;;;;;15.00;9.27;;;;;;;17.57;72.87;93193.88;4996140;28;20122;-77
2022/10/04 11:18:00;;;;;;;24.10;12.57;;;;;;;17.63;74.48;93197.13;5033758;28;20118;-77
2022/10/04 11:20:51;;;;;;;22.27;12.15;;;;;;;17.13;76.19;93195.69;5033182;28;20084;-77
2022/10/04 11:23:38;;;;;;;18.55;10.50;;;;;;;17.31;77.77;93193.84;5035238;28;20030;-78
2022/10/04 11:26:09;;;;;;;17.40;9.50;;;;;;;17.67;75.31;93195.41;5031780;28;20038;-78
2022/10/04 11:28:38;;;;;;;12.38;7.30;;;;;;;17.79;73.58;93194.81;5016457;28;20549;-78
2022/10/04 11:31:03;;;;;;;19.02;10.88;;;;;;;17.72;73.60;93194.47;5035195;28;20053;-78
2022/10/04 11:34:01;;;;;;;18.45;9.45;;;;;;;17.53;73.78;93192.16;5054495;28;20487;-78
2022/10/04 11:36:40;;;;;;;15.20;7.28;;;;;;;17.67;75.00;93187.47;5054171;28;20465;-79
2022/10/04 11:39:29;;;;;;;18.50;9.00;;;;;;;17.50;74.03;93188.28;5038793;28;20462;-78
2022/10/04 11:42:20;;;;;;;21.23;9.77;;;;;;;17.67;75.20;93184.81;5026309;28;20036;-78
2022/10/04 11:45:37;;;;;;;15.63;9.50;;;;;;;17.87;75.01;93186.84;5025156;28;20046;-78
2022/10/04 11:48:22;;;;;;;18.83;9.93;;;;;;;17.80;75.86;93175.16;5007548;28;20538;-78
2022/10/04 11:51:17;;;;;;;18.45;9.85;;;;;;;17.68;76.14;93178.44;5013702;28;20458;-78
2022/10/04 11:54:24;;;;;;;18.80;11.82;;;;;;;17.41;77.27;93168.97;5031879;28;20037;-78
2022/10/04 11:57:11;;;;;;;26.33;14.18;;;;;;;17.44;78.99;93178.91;5026035;28;20057;-78
2022/10/04 12:00:15;;;;;;;16.83;11.57;;;;;;;17.42;80.10;93175.81;5023777;28;20022;-78
2022/10/04 12:02:56;;;;;;;21.65;12.73;;;;;;;17.46;80.00;93177.50;5018322;28;20045;-77
2022/10/04 12:05:50;;;;;;;22.98;13.45;;;;;;;17.52;80.58;93166.75;5012144;28;20403;-77
2022/10/04 12:08:15;;;;;;;18.00;11.48;;;;;;;17.38;80.43;93169.56;5020919;28;20041;-78
2022/10/04 12:10:45;;;;;;;22.90;12.70;;;;;;;17.39;80.61;93176.44;5000607;28;20041;-78
2022/10/04 12:13:32;;;;;;;21.98;11.80;;;;;;;17.48;78.81;93171.91;5013195;28;20037;-78
2022/10/04 12:16:26;;;;;;;16.83;11.43;;;;;;;17.53;78.65;93171.75;5033570;28;20040;-78
2022/10/04 12:19:12;;;;;;;20.23;12.43;;;;;;;17.84;76.87;93166.31;4996676;28;20041;-78
2022/10/04 12:22:07;;;;;;;23.65;13.07;;;;;;;17.89;77.60;93165.34;5036357;28;20026;-78
2022/10/04 12:24:52;;;;;;;20.48;12.38;;;;;;;17.78;78.11;93164.09;5013280;28;20049;-78